createdAt,value
2018-06-07T00:00:08.981Z,25.40
2018-06-07T00:02:34.970Z,25.40
2018-06-07T00:05:00.955Z,25.40
2018-06-07T00:07:26.937Z,25.39
2018-06-07T00:09:52.955Z,25.39
2018-06-07T00:12:18.931Z,25.39
2018-06-07T00:14:44.907Z,25.38
2018-06-07T00:17:10.931Z,25.38
2018-06-07T00:19:36.915Z,25.38
2018-06-07T00:22:02.895Z,25.39
2018-06-07T00:24:28.874Z,25.38
2018-06-07T00:26:54.863Z,25.38
2018-06-07T00:29:20.842Z,25.38
2018-06-07T00:31:46.815Z,25.37
2018-06-07T00:34:12.799Z,25.37
2018-06-07T00:36:38.783Z,25.36
2018-06-07T00:39:04.766Z,25.36
2018-06-07T00:41:30.747Z,25.36
2018-06-07T00:43:56.730Z,25.36
2018-06-07T00:46:22.731Z,25.36
2018-06-07T00:48:48.698Z,25.36
2018-06-07T00:51:14.713Z,25.36
2018-06-07T00:53:40.704Z,25.36
2018-06-07T00:56:06.674Z,25.35
2018-06-07T00:58:32.659Z,25.35
2018-06-07T01:00:58.687Z,25.34
2018-06-07T01:03:24.640Z,25.34
2018-06-07T01:05:50.620Z,25.34
2018-06-07T01:08:16.608Z,25.34
2018-06-07T01:10:42.598Z,25.33
2018-06-07T01:13:08.579Z,25.34
2018-06-07T01:15:34.560Z,25.33
2018-06-07T01:18:00.545Z,25.32
2018-06-07T01:20:26.527Z,25.32
2018-06-07T01:22:52.511Z,25.32
2018-06-07T01:25:18.487Z,25.32
2018-06-07T01:27:44.477Z,25.32
2018-06-07T01:30:10.488Z,25.32
2018-06-07T01:32:36.465Z,25.31
2018-06-07T01:35:02.443Z,25.31
2018-06-07T01:37:28.436Z,25.31
2018-06-07T01:39:54.429Z,25.32
2018-06-07T01:42:20.405Z,25.31
2018-06-07T01:44:46.403Z,25.30
2018-06-07T01:47:12.379Z,25.30
2018-06-07T01:49:38.359Z,25.30
2018-06-07T01:52:04.342Z,25.30
2018-06-07T01:54:30.321Z,25.30
2018-06-07T01:56:56.305Z,25.29
2018-06-07T01:59:22.316Z,25.29
2018-06-07T02:01:48.292Z,25.29
2018-06-07T02:04:14.271Z,25.29
2018-06-07T02:06:40.258Z,25.29
2018-06-07T02:09:06.246Z,25.29
2018-06-07T02:11:32.240Z,25.29
2018-06-07T02:13:58.223Z,25.28
2018-06-07T02:16:24.212Z,25.29
2018-06-07T02:18:50.197Z,25.28
2018-06-07T02:21:16.178Z,25.28
2018-06-07T02:23:42.165Z,25.28
2018-06-07T02:26:08.153Z,25.27
2018-06-07T02:28:34.136Z,25.27
2018-06-07T02:31:00.127Z,25.27
2018-06-07T02:33:26.104Z,25.27
2018-06-07T02:35:52.089Z,25.27
2018-06-07T02:38:18.063Z,25.27
2018-06-07T02:40:44.057Z,25.27
2018-06-07T02:43:10.040Z,25.27
2018-06-07T02:45:36.028Z,25.26
2018-06-07T02:48:02.012Z,25.26
2018-06-07T02:50:28.000Z,25.26
2018-06-07T02:52:53.986Z,25.26
2018-06-07T02:55:19.975Z,25.26
2018-06-07T02:57:45.957Z,25.25
2018-06-07T03:00:11.956Z,25.24
2018-06-07T03:02:37.936Z,25.24
2018-06-07T03:05:03.924Z,25.24
2018-06-07T03:07:29.917Z,25.24
2018-06-07T03:09:55.901Z,25.23
2018-06-07T03:12:21.919Z,25.21
2018-06-07T03:14:47.900Z,25.22
2018-06-07T03:17:13.876Z,25.21
2018-06-07T03:19:39.854Z,25.20
2018-06-07T03:22:05.836Z,25.20
2018-06-07T03:24:31.821Z,25.19
2018-06-07T03:26:57.804Z,25.19
2018-06-07T03:29:23.795Z,25.19
2018-06-07T03:31:49.777Z,25.18
2018-06-07T03:34:15.763Z,25.18
2018-06-07T03:36:41.741Z,25.18
2018-06-07T03:39:07.730Z,25.19
2018-06-07T03:41:33.712Z,25.18
2018-06-07T03:43:59.695Z,25.20
2018-06-07T03:46:25.672Z,25.19
2018-06-07T03:48:51.692Z,25.20
2018-06-07T03:51:17.668Z,25.21
2018-06-07T03:53:43.647Z,25.21
2018-06-07T03:56:09.635Z,25.22
2018-06-07T03:58:35.621Z,25.23
2018-06-07T04:01:01.598Z,25.22
2018-06-07T04:03:27.584Z,25.21
2018-06-07T04:05:53.671Z,25.23
2018-06-07T04:08:19.693Z,25.24
2018-06-07T04:10:45.675Z,25.23
2018-06-07T04:13:11.691Z,25.24
2018-06-07T04:15:37.688Z,25.23
2018-06-07T04:18:03.672Z,25.25
2018-06-07T04:20:29.665Z,25.24
2018-06-07T04:22:55.654Z,25.25
2018-06-07T04:25:21.641Z,25.24
2018-06-07T04:27:47.799Z,25.23
2018-06-07T04:30:13.785Z,25.22
2018-06-07T04:32:39.768Z,25.23
2018-06-07T04:35:05.755Z,25.22
2018-06-07T04:37:31.744Z,25.23
2018-06-07T04:39:57.746Z,25.24
2018-06-07T04:42:23.729Z,25.24
2018-06-07T04:44:49.732Z,25.25
2018-06-07T04:47:15.710Z,25.23
2018-06-07T04:49:41.695Z,25.23
2018-06-07T04:52:07.685Z,25.22
2018-06-07T04:54:33.683Z,25.21
2018-06-07T04:56:59.675Z,25.24
2018-06-07T04:59:25.662Z,25.24
2018-06-07T05:01:51.657Z,25.23
2018-06-07T05:04:17.647Z,25.24
2018-06-07T05:06:43.695Z,25.25
2018-06-07T05:09:09.630Z,25.24
2018-06-07T05:11:35.663Z,25.24
2018-06-07T05:14:01.967Z,25.25
2018-06-07T05:16:27.969Z,25.25
2018-06-07T05:18:53.951Z,25.26
2018-06-07T05:21:19.964Z,25.27
2018-06-07T05:23:45.950Z,25.27
2018-06-07T05:26:11.989Z,25.27
2018-06-07T05:28:37.998Z,25.27
2018-06-07T05:31:04.011Z,25.27
2018-06-07T05:33:29.977Z,25.27
2018-06-07T05:35:55.962Z,25.28
2018-06-07T05:38:21.999Z,25.29
2018-06-07T05:40:47.923Z,25.28
2018-06-07T05:43:13.933Z,25.27
2018-06-07T05:45:39.910Z,25.24
2018-06-07T05:48:05.901Z,25.26
2018-06-07T05:50:31.907Z,25.24
2018-06-07T05:52:57.869Z,25.22
2018-06-07T05:55:23.880Z,25.21
2018-06-07T05:57:49.871Z,25.20
2018-06-07T06:00:15.946Z,25.19
2018-06-07T06:02:41.889Z,25.19
2018-06-07T06:05:07.868Z,25.19
2018-06-07T06:07:33.857Z,25.19
2018-06-07T06:09:59.853Z,25.19
2018-06-07T06:12:25.818Z,25.18
2018-06-07T06:14:51.803Z,25.18
2018-06-07T06:17:17.797Z,25.19
2018-06-07T06:19:43.793Z,25.19
2018-06-07T06:22:09.816Z,25.20
2018-06-07T06:24:35.801Z,25.20
2018-06-07T06:27:01.808Z,25.21
2018-06-07T06:29:27.795Z,25.21
2018-06-07T06:31:53.775Z,25.20
2018-06-07T06:34:19.755Z,25.21
2018-06-07T06:36:45.736Z,25.21
2018-06-07T06:39:11.739Z,25.20
2018-06-07T06:41:37.701Z,25.20
2018-06-07T06:44:03.678Z,25.20
2018-06-07T06:46:29.674Z,25.19
2018-06-07T06:48:55.663Z,25.18
2018-06-07T06:51:21.669Z,25.19
2018-06-07T06:53:47.941Z,25.17
2018-06-07T06:56:13.914Z,25.17
2018-06-07T06:58:39.892Z,25.16
2018-06-07T07:01:05.872Z,25.16
2018-06-07T07:03:31.865Z,25.15
2018-06-07T07:05:57.852Z,25.16
2018-06-07T07:08:23.862Z,25.16
2018-06-07T07:10:49.845Z,25.16
2018-06-07T07:13:15.830Z,25.15
2018-06-07T07:15:41.813Z,25.15
2018-06-07T07:18:07.801Z,25.15
2018-06-07T07:20:33.782Z,25.14
2018-06-07T07:22:59.769Z,25.15
2018-06-07T07:25:25.755Z,25.14
2018-06-07T07:27:51.738Z,25.14
2018-06-07T07:30:17.718Z,25.15
2018-06-07T07:32:43.706Z,25.15
2018-06-07T07:35:09.691Z,25.15
2018-06-07T07:37:35.679Z,25.15
2018-06-07T07:40:01.676Z,25.15
2018-06-07T07:42:27.637Z,25.14
2018-06-07T07:44:53.620Z,25.15
2018-06-07T07:47:19.634Z,25.15
2018-06-07T07:49:45.610Z,25.15
2018-06-07T07:52:11.595Z,25.14
2018-06-07T07:54:37.590Z,25.15
2018-06-07T07:57:03.571Z,25.14
2018-06-07T07:59:29.565Z,25.13
2018-06-07T08:01:55.562Z,25.13
2018-06-07T08:04:21.539Z,25.12
2018-06-07T08:06:47.522Z,25.12
2018-06-07T08:09:13.543Z,25.13
2018-06-07T08:11:39.507Z,25.13
2018-06-07T08:14:05.501Z,25.12
2018-06-07T08:16:31.483Z,25.13
2018-06-07T08:18:57.492Z,25.13
2018-06-07T08:21:23.477Z,25.13
2018-06-07T08:23:49.502Z,25.13
2018-06-07T08:26:15.441Z,25.13
2018-06-07T08:28:41.467Z,25.13
2018-06-07T08:31:07.417Z,25.12
2018-06-07T08:33:33.405Z,25.13
2018-06-07T08:35:59.398Z,25.13
2018-06-07T08:38:25.379Z,25.13
2018-06-07T08:40:51.368Z,25.13
2018-06-07T08:43:17.363Z,25.14
2018-06-07T08:45:43.341Z,25.14
2018-06-07T08:48:09.330Z,25.14
2018-06-07T08:50:35.322Z,25.14
2018-06-07T08:53:01.371Z,25.14
2018-06-07T08:55:27.334Z,25.14
2018-06-07T08:57:53.349Z,25.13
2018-06-07T09:00:19.357Z,25.14
2018-06-07T09:02:45.280Z,25.12
2018-06-07T09:05:11.255Z,25.13
2018-06-07T09:07:37.238Z,25.13
2018-06-07T09:10:03.224Z,25.13
2018-06-07T09:12:29.212Z,25.14
2018-06-07T09:14:55.227Z,25.12
2018-06-07T09:17:21.208Z,25.12
2018-06-07T09:19:47.186Z,25.11
2018-06-07T09:22:13.177Z,25.11
2018-06-07T09:24:39.195Z,25.11
2018-06-07T09:27:05.180Z,25.12
2018-06-07T09:29:31.166Z,25.12
2018-06-07T09:31:57.158Z,25.12
2018-06-07T09:34:23.145Z,25.12
2018-06-07T09:36:49.130Z,25.13
2018-06-07T09:39:15.144Z,25.13
2018-06-07T09:41:41.143Z,25.13
2018-06-07T09:44:07.133Z,25.13
2018-06-07T09:46:33.132Z,25.14
2018-06-07T09:48:59.187Z,25.14
2018-06-07T09:51:25.198Z,25.12
2018-06-07T09:53:51.166Z,25.13
2018-06-07T09:56:17.155Z,25.13
2018-06-07T09:58:43.171Z,25.12
2018-06-07T10:01:09.164Z,25.13
2018-06-07T10:03:35.203Z,25.13
2018-06-07T10:06:01.192Z,25.13
2018-06-07T10:08:27.176Z,25.13
2018-06-07T10:10:53.155Z,25.11
2018-06-07T10:13:19.178Z,25.11
2018-06-07T10:15:45.127Z,25.11
2018-06-07T10:18:11.116Z,25.12
2018-06-07T10:20:37.142Z,25.11
2018-06-07T10:23:03.131Z,25.11
2018-06-07T10:25:29.113Z,25.11
2018-06-07T10:27:55.129Z,25.11
2018-06-07T10:30:21.119Z,25.12
2018-06-07T10:32:47.094Z,25.13
2018-06-07T10:35:13.088Z,25.13
2018-06-07T10:37:39.067Z,25.12
2018-06-07T10:40:05.049Z,25.11
2018-06-07T10:42:31.023Z,25.10
2018-06-07T10:44:57.022Z,25.12
2018-06-07T10:47:23.007Z,25.13
2018-06-07T10:49:48.996Z,25.12
2018-06-07T10:52:15.017Z,25.12
2018-06-07T10:54:40.979Z,25.12
2018-06-07T10:57:06.963Z,25.13
2018-06-07T10:59:33.035Z,25.12
2018-06-07T11:01:59.088Z,25.12
2018-06-07T11:04:25.112Z,25.13
2018-06-07T11:06:51.111Z,25.12
2018-06-07T11:09:17.092Z,25.12
2018-06-07T11:11:43.078Z,25.12
2018-06-07T11:14:09.058Z,25.11
2018-06-07T11:16:35.050Z,25.10
2018-06-07T11:19:01.044Z,25.10
2018-06-07T11:21:27.022Z,25.12
2018-06-07T11:23:53.062Z,25.13
2018-06-07T11:26:19.025Z,25.13
2018-06-07T11:28:45.006Z,25.15
2018-06-07T11:31:11.006Z,25.17
2018-06-07T11:33:37.040Z,25.16
2018-06-07T11:36:03.028Z,25.16
2018-06-07T11:38:29.065Z,25.16
2018-06-07T11:40:55.192Z,25.14
2018-06-07T11:43:21.153Z,25.15
2018-06-07T11:45:47.210Z,25.14
2018-06-07T11:48:13.389Z,25.13
2018-06-07T11:50:39.398Z,25.15
2018-06-07T11:53:05.359Z,25.14
2018-06-07T11:55:31.337Z,25.14
2018-06-07T11:57:57.323Z,25.15
2018-06-07T12:00:23.311Z,25.14
2018-06-07T12:02:49.325Z,25.15
2018-06-07T12:05:15.322Z,25.16
2018-06-07T12:07:41.320Z,25.16
2018-06-07T12:10:07.309Z,25.15
2018-06-07T12:12:33.379Z,25.14
2018-06-07T12:14:59.302Z,25.17
2018-06-07T12:17:25.362Z,25.18
2018-06-07T12:19:53.316Z,25.18
2018-06-07T12:22:17.328Z,25.17
2018-06-07T12:24:43.311Z,25.17
2018-06-07T12:27:09.302Z,25.17
2018-06-07T12:29:35.288Z,25.16
2018-06-07T12:32:01.293Z,25.16
2018-06-07T12:34:27.269Z,25.13
2018-06-07T12:36:53.249Z,25.13
2018-06-07T12:39:19.266Z,25.13
2018-06-07T12:41:45.254Z,25.13
2018-06-07T12:44:11.246Z,25.13
2018-06-07T12:46:37.284Z,25.14
2018-06-07T12:49:03.219Z,25.13
2018-06-07T12:51:29.200Z,25.13
2018-06-07T12:53:55.184Z,25.13
2018-06-07T12:56:21.168Z,25.11
2018-06-07T12:58:47.203Z,25.12
2018-06-07T13:01:13.216Z,25.12
2018-06-07T13:03:39.199Z,25.10
2018-06-07T13:06:05.222Z,25.10
2018-06-07T13:08:31.309Z,25.09
2018-06-07T13:10:57.277Z,25.08
2018-06-07T13:13:23.379Z,25.09
2018-06-07T13:15:49.367Z,25.09
2018-06-07T13:18:15.376Z,25.08
2018-06-07T13:20:41.362Z,25.09
2018-06-07T13:23:07.364Z,25.08
2018-06-07T13:25:33.340Z,25.10
2018-06-07T13:27:59.321Z,25.10
2018-06-07T13:30:25.374Z,25.11
2018-06-07T13:32:51.351Z,25.11
2018-06-07T13:35:17.363Z,25.11
2018-06-07T13:37:43.343Z,25.11
2018-06-07T13:40:09.323Z,25.11
2018-06-07T13:42:35.321Z,25.10
2018-06-07T13:45:01.393Z,25.11
2018-06-07T13:47:27.390Z,25.11
2018-06-07T13:49:53.401Z,25.38
2018-06-07T13:52:19.379Z,25.29
2018-06-07T13:54:45.359Z,25.21
2018-06-07T13:57:11.346Z,25.18
2018-06-07T13:59:37.321Z,25.16
2018-06-07T14:02:03.329Z,25.17
2018-06-07T14:04:29.349Z,25.16
2018-06-07T14:06:55.334Z,25.18
2018-06-07T14:09:21.315Z,25.16
2018-06-07T14:11:47.300Z,25.17
2018-06-07T14:14:13.278Z,25.16
2018-06-07T14:16:39.303Z,25.15
2018-06-07T14:19:05.298Z,25.15
2018-06-07T14:21:31.276Z,25.15
2018-06-07T14:23:57.301Z,25.15
2018-06-07T14:26:23.331Z,25.14
2018-06-07T14:28:49.319Z,25.13
2018-06-07T14:31:15.328Z,25.12
2018-06-07T14:33:41.302Z,25.11
2018-06-07T14:36:07.314Z,25.12
2018-06-07T14:38:33.295Z,25.12
2018-06-07T14:40:59.273Z,25.12
2018-06-07T14:43:25.270Z,25.11
2018-06-07T14:45:51.248Z,25.11
2018-06-07T14:48:17.230Z,25.11
2018-06-07T14:50:43.266Z,25.11
2018-06-07T14:53:09.259Z,25.12
2018-06-07T14:55:35.271Z,25.10
2018-06-07T14:58:01.260Z,25.11
2018-06-07T15:00:27.252Z,25.11
2018-06-07T15:02:53.240Z,25.12
2018-06-07T15:05:19.298Z,25.12
2018-06-07T15:07:45.299Z,25.14
2018-06-07T15:10:11.363Z,25.15
2018-06-07T15:12:37.347Z,25.17
2018-06-07T15:15:03.362Z,25.18
2018-06-07T15:17:29.350Z,25.19
2018-06-07T15:19:55.346Z,25.20
2018-06-07T15:22:21.339Z,25.20
2018-06-07T15:24:47.313Z,25.20
2018-06-07T15:27:13.306Z,25.23
2018-06-07T15:29:39.343Z,25.25
2018-06-07T15:32:05.325Z,25.26
2018-06-07T15:34:31.317Z,25.24
2018-06-07T15:36:57.335Z,25.26
2018-06-07T15:39:23.703Z,25.25
2018-06-07T15:41:49.719Z,25.25
2018-06-07T15:44:15.740Z,25.24
2018-06-07T15:46:41.746Z,25.24
2018-06-07T15:49:07.752Z,25.25
2018-06-07T15:51:33.764Z,25.24
2018-06-07T15:54:00.382Z,25.29
2018-06-07T15:56:26.335Z,25.29
2018-06-07T15:58:52.364Z,25.33
2018-06-07T16:01:18.390Z,25.32
2018-06-07T16:03:44.387Z,25.33
2018-06-07T16:06:10.427Z,25.32
2018-06-07T16:08:36.383Z,25.33
2018-06-07T16:11:02.409Z,25.30
2018-06-07T16:13:28.409Z,25.32
2018-06-07T16:15:54.405Z,25.31
2018-06-07T16:18:20.518Z,25.31
2018-06-07T16:20:46.678Z,25.30
2018-06-07T16:23:13.361Z,25.30
2018-06-07T16:25:39.636Z,25.28
2018-06-07T16:28:05.614Z,25.29
2018-06-07T16:30:31.630Z,25.29
2018-06-07T16:32:57.779Z,25.29
2018-06-07T16:35:23.881Z,25.30
2018-06-07T16:37:50.069Z,25.30
2018-06-07T16:40:16.084Z,25.30
2018-06-07T16:42:42.117Z,25.30
2018-06-07T16:45:08.561Z,25.29
2018-06-07T16:47:34.542Z,25.29
2018-06-07T16:50:00.559Z,25.29
2018-06-07T16:52:26.621Z,25.29
2018-06-07T16:54:52.606Z,25.29
2018-06-07T16:57:18.600Z,25.30
2018-06-07T16:59:44.596Z,25.30
2018-06-07T17:02:11.204Z,25.28
2018-06-07T17:04:37.820Z,25.31
2018-06-07T17:07:04.383Z,25.29
2018-06-07T17:09:30.375Z,25.29
2018-06-07T17:11:56.399Z,25.29
2018-06-07T17:14:22.493Z,25.29
2018-06-07T17:16:48.489Z,25.29
2018-06-07T17:19:14.481Z,25.27
2018-06-07T17:21:40.510Z,25.28
2018-06-07T17:24:06.503Z,25.30
2018-06-07T17:26:32.812Z,25.30
2018-06-07T17:28:58.803Z,25.29
2018-06-07T17:31:24.783Z,25.28
2018-06-07T17:33:50.836Z,25.29
2018-06-07T17:36:16.934Z,25.29
2018-06-07T17:38:42.928Z,25.29
2018-06-07T17:41:09.094Z,25.28
2018-06-07T17:43:35.079Z,25.29
2018-06-07T17:46:01.090Z,25.31
2018-06-07T17:48:27.576Z,25.29
2018-06-07T17:50:53.585Z,25.30
2018-06-07T17:53:19.608Z,25.30
2018-06-07T17:55:45.634Z,25.30
2018-06-07T17:58:11.699Z,25.30
2018-06-07T18:00:37.648Z,25.31
2018-06-07T18:03:03.632Z,25.30
2018-06-07T18:05:29.620Z,25.29
2018-06-07T18:07:55.656Z,25.29
2018-06-07T18:10:21.692Z,25.29
2018-06-07T18:12:47.732Z,25.29
2018-06-07T18:15:13.645Z,25.30
2018-06-07T18:17:39.669Z,25.30
2018-06-07T18:20:05.719Z,25.31
2018-06-07T18:22:31.692Z,25.30
2018-06-07T18:24:57.720Z,25.30
2018-06-07T18:27:23.706Z,25.30
2018-06-07T18:29:49.698Z,25.30
2018-06-07T18:32:15.679Z,25.29
2018-06-07T18:34:41.716Z,25.28
2018-06-07T18:37:07.810Z,25.28
2018-06-07T18:39:33.830Z,25.29
2018-06-07T18:41:59.814Z,25.29
2018-06-07T18:44:28.196Z,25.29
2018-06-07T18:46:54.176Z,25.28
2018-06-07T18:49:20.168Z,25.29
2018-06-07T18:51:46.161Z,25.29
2018-06-07T18:54:12.150Z,25.30
2018-06-07T18:56:38.130Z,25.30
2018-06-07T18:59:04.158Z,25.32
2018-06-07T19:01:30.121Z,25.30
2018-06-07T19:03:56.104Z,25.28
2018-06-07T19:06:22.091Z,25.28
2018-06-07T19:08:48.079Z,25.27
2018-06-07T19:11:14.068Z,25.29
2018-06-07T19:13:40.080Z,25.28
2018-06-07T19:16:06.059Z,25.28
2018-06-07T19:18:32.102Z,25.29
2018-06-07T19:20:58.054Z,25.29
2018-06-07T19:23:24.088Z,25.29
2018-06-07T19:25:50.140Z,25.28
2018-06-07T19:28:16.055Z,25.27
2018-06-07T19:30:42.035Z,25.28
2018-06-07T19:33:08.054Z,25.30
2018-06-07T19:35:34.068Z,25.32
2018-06-07T19:38:00.088Z,25.32
2018-06-07T19:40:26.080Z,25.66
2018-06-07T19:42:52.078Z,25.43
2018-06-07T19:45:18.073Z,25.32
2018-06-07T19:47:44.120Z,25.29
2018-06-07T19:50:10.172Z,25.28
2018-06-07T19:52:36.107Z,25.28
2018-06-07T19:55:02.087Z,25.27
2018-06-07T19:57:28.189Z,25.26
2018-06-07T19:59:54.200Z,25.27
2018-06-07T20:02:20.179Z,25.27
2018-06-07T20:04:46.153Z,25.26
2018-06-07T20:07:12.136Z,25.26
2018-06-07T20:09:38.119Z,25.26
2018-06-07T20:12:04.095Z,25.27
2018-06-07T20:14:30.136Z,25.27
2018-06-07T20:16:56.114Z,25.28
2018-06-07T20:19:22.090Z,25.28
2018-06-07T20:21:48.069Z,25.27
2018-06-07T20:24:14.076Z,25.28
2018-06-07T20:26:40.054Z,25.27
2018-06-07T20:29:06.037Z,25.27
2018-06-07T20:31:32.030Z,25.27
2018-06-07T20:33:58.017Z,25.28
2018-06-07T20:36:24.044Z,25.27
2018-06-07T20:38:50.020Z,25.27
2018-06-07T20:41:16.005Z,25.27
2018-06-07T20:43:42.018Z,25.27
2018-06-07T20:46:07.974Z,25.27
2018-06-07T20:48:33.957Z,25.27
2018-06-07T20:50:59.981Z,25.28
2018-06-07T20:53:25.991Z,25.28
2018-06-07T20:55:51.987Z,25.28
2018-06-07T20:58:17.968Z,25.29
2018-06-07T21:00:43.952Z,25.29
2018-06-07T21:03:09.943Z,25.30
2018-06-07T21:05:35.977Z,25.32
2018-06-07T21:08:02.002Z,25.32
2018-06-07T21:10:27.979Z,25.31
2018-06-07T21:12:54.015Z,25.30
2018-06-07T21:15:19.985Z,25.31
2018-06-07T21:17:46.009Z,25.31
2018-06-07T21:20:11.997Z,25.29
2018-06-07T21:22:38.019Z,25.29
2018-06-07T21:25:03.996Z,25.29
2018-06-07T21:27:29.981Z,25.29
2018-06-07T21:29:55.966Z,25.29
2018-06-07T21:32:21.969Z,25.29
2018-06-07T21:34:47.947Z,25.30
2018-06-07T21:37:13.932Z,25.29
2018-06-07T21:39:39.921Z,25.28
2018-06-07T21:42:05.904Z,25.28
2018-06-07T21:44:31.895Z,25.29
2018-06-07T21:46:57.882Z,25.29
2018-06-07T21:49:23.860Z,25.29
2018-06-07T21:51:49.838Z,25.28
2018-06-07T21:54:15.832Z,25.27
2018-06-07T21:56:41.810Z,25.26
2018-06-07T21:59:07.795Z,25.26
2018-06-07T22:01:33.785Z,25.26
2018-06-07T22:03:59.797Z,25.24
2018-06-07T22:06:25.783Z,25.24
2018-06-07T22:08:51.776Z,25.24
2018-06-07T22:11:17.767Z,25.24
2018-06-07T22:13:43.756Z,25.24
2018-06-07T22:16:09.738Z,25.23
2018-06-07T22:18:35.715Z,25.22
2018-06-07T22:21:01.699Z,25.22
2018-06-07T22:23:27.683Z,25.21
2018-06-07T22:25:53.657Z,25.21
2018-06-07T22:28:19.647Z,25.20
2018-06-07T22:30:45.630Z,25.21
2018-06-07T22:33:11.612Z,25.20
2018-06-07T22:35:37.602Z,25.20
2018-06-07T22:38:03.577Z,25.20
2018-06-07T22:40:29.561Z,25.19
2018-06-07T22:42:55.534Z,25.19
2018-06-07T22:45:21.522Z,25.19
2018-06-07T22:47:47.506Z,25.18
2018-06-07T22:50:13.489Z,25.18
2018-06-07T22:52:39.475Z,25.18
2018-06-07T22:55:05.449Z,25.18
2018-06-07T22:57:31.432Z,25.18
2018-06-07T22:59:57.409Z,25.17
2018-06-07T23:02:23.387Z,25.17
2018-06-07T23:04:49.372Z,25.16
2018-06-07T23:07:15.362Z,25.17
2018-06-07T23:09:41.359Z,25.17
2018-06-07T23:12:07.347Z,25.17
2018-06-07T23:14:33.373Z,25.16
2018-06-07T23:16:59.366Z,25.16
2018-06-07T23:19:25.348Z,25.15
2018-06-07T23:21:51.349Z,25.15
2018-06-07T23:24:17.374Z,25.15
2018-06-07T23:26:43.349Z,25.15
2018-06-07T23:29:09.331Z,25.15
2018-06-07T23:31:35.337Z,25.15
2018-06-07T23:34:01.351Z,25.14
2018-06-07T23:36:27.308Z,25.15
2018-06-07T23:38:53.305Z,25.14
2018-06-07T23:41:19.293Z,25.14
2018-06-07T23:43:45.283Z,25.14
2018-06-07T23:46:11.268Z,25.14
2018-06-07T23:48:37.254Z,25.14
2018-06-07T23:51:03.236Z,25.14
2018-06-07T23:53:29.217Z,25.13
2018-06-07T23:55:55.210Z,25.13
2018-06-07T23:58:21.197Z,25.13
